createdAt,value
2023-05-11T00:00:50.651Z,1.90
2023-05-11T00:03:56.248Z,2.17
2023-05-11T00:07:00.992Z,2.25
2023-05-11T00:10:03.441Z,1.90
2023-05-11T00:13:05.680Z,2.25
2023-05-11T00:16:07.964Z,2.38
2023-05-11T00:19:12.837Z,2.80
2023-05-11T00:22:15.204Z,2.17
2023-05-11T00:25:22.306Z,2.13
2023-05-11T00:28:27.081Z,2.30
2023-05-11T00:31:30.557Z,2.40
2023-05-11T00:34:33.116Z,2.10
2023-05-11T00:37:35.419Z,2.30
2023-05-11T00:40:40.441Z,2.72
2023-05-11T00:43:42.702Z,2.03
2023-05-11T00:46:45.014Z,2.35
2023-05-11T00:49:50.719Z,2.22
2023-05-11T00:52:58.272Z,2.45
2023-05-11T00:56:01.368Z,2.30
2023-05-11T00:59:03.738Z,2.47
2023-05-11T01:02:09.228Z,2.15
2023-05-11T01:05:14.264Z,2.28
2023-05-11T01:08:32.528Z,2.10
2023-05-11T01:11:47.027Z,2.30
2023-05-11T01:14:56.527Z,2.22
2023-05-11T01:18:07.405Z,2.13
2023-05-11T01:21:12.237Z,1.95
2023-05-11T01:24:38.050Z,2.40
2023-05-11T01:27:51.788Z,2.10
2023-05-11T01:31:23.612Z,2.53
2023-05-11T01:34:34.230Z,2.10
2023-05-11T01:37:44.547Z,2.00
2023-05-11T01:40:54.591Z,2.42
2023-05-11T01:44:00.605Z,2.60
2023-05-11T01:47:04.714Z,2.22
2023-05-11T01:50:08.852Z,2.33
2023-05-11T01:53:17.499Z,2.17
2023-05-11T01:56:25.063Z,1.77
2023-05-11T01:59:28.224Z,2.10
2023-05-11T02:02:39.896Z,2.35
2023-05-11T02:05:43.884Z,2.25
2023-05-11T02:08:48.239Z,2.47
2023-05-11T02:11:53.722Z,2.20
2023-05-11T02:17:59.876Z,2.20
2023-05-11T02:21:06.427Z,2.00
2023-05-11T02:24:09.610Z,2.40
2023-05-11T02:27:12.989Z,2.08
2023-05-11T02:30:15.877Z,2.20
2023-05-11T02:33:24.454Z,1.83
2023-05-11T02:36:29.650Z,2.25
2023-05-11T02:39:35.462Z,2.20
2023-05-11T02:42:42.605Z,2.00
2023-05-11T02:45:50.374Z,2.22
2023-05-11T02:48:57.773Z,2.13
2023-05-11T02:52:04.048Z,2.42
2023-05-11T02:55:12.606Z,2.55
2023-05-11T02:58:15.560Z,2.15
2023-05-11T03:01:22.476Z,2.30
2023-05-11T03:04:25.398Z,2.25
2023-05-11T03:07:28.232Z,2.55
2023-05-11T03:10:34.351Z,2.00
2023-05-11T03:13:41.485Z,2.20
2023-05-11T03:16:44.495Z,2.10
2023-05-11T03:19:56.704Z,2.22
2023-05-11T03:23:01.963Z,2.30
2023-05-11T03:26:09.713Z,2.45
2023-05-11T03:29:16.973Z,2.20
2023-05-11T03:32:19.716Z,2.13
2023-05-11T03:35:27.324Z,2.70
2023-05-11T03:38:31.151Z,2.33
2023-05-11T03:41:40.011Z,2.42
2023-05-11T03:44:48.985Z,3.10
2023-05-11T03:47:59.823Z,2.65
2023-05-11T03:51:05.186Z,2.95
2023-05-11T03:54:09.976Z,2.80
2023-05-11T03:57:16.555Z,3.22
2023-05-11T04:00:19.322Z,2.55
2023-05-11T04:03:22.933Z,2.67
2023-05-11T04:06:25.571Z,2.95
2023-05-11T04:09:38.418Z,2.65
2023-05-11T04:12:46.005Z,2.85
2023-05-11T04:15:48.672Z,2.55
2023-05-11T04:18:51.099Z,2.13
2023-05-11T04:21:53.489Z,2.85
2023-05-11T04:24:55.865Z,2.40
2023-05-11T04:27:58.740Z,2.30
2023-05-11T04:31:01.095Z,2.22
2023-05-11T04:34:09.122Z,2.45
2023-05-11T04:37:12.945Z,2.20
2023-05-11T04:40:19.989Z,2.10
2023-05-11T04:43:28.907Z,2.15
2023-05-11T04:46:37.027Z,2.30
2023-05-11T04:49:44.274Z,2.53
2023-05-11T04:52:47.342Z,2.35
2023-05-11T04:55:50.195Z,2.60
2023-05-11T04:58:52.531Z,2.45
2023-05-11T05:01:59.661Z,2.80
2023-05-11T05:05:02.027Z,2.53
2023-05-11T05:08:07.522Z,2.63
2023-05-11T05:14:13.192Z,2.30
2023-05-11T05:17:17.712Z,2.00
2023-05-11T05:20:20.653Z,2.17
2023-05-11T05:23:25.173Z,2.22
2023-05-11T05:26:27.531Z,2.33
2023-05-11T05:29:30.425Z,2.78
2023-05-11T05:32:35.314Z,2.58
2023-05-11T05:35:39.950Z,2.53
2023-05-11T05:38:42.813Z,2.60
2023-05-11T05:41:52.443Z,2.95
2023-05-11T05:44:57.538Z,2.40
2023-05-11T05:48:03.027Z,2.92
2023-05-11T05:51:06.416Z,2.58
2023-05-11T05:54:09.290Z,2.28
2023-05-11T05:57:12.774Z,2.38
2023-05-11T06:00:20.209Z,2.58
2023-05-11T06:03:31.008Z,3.20
2023-05-11T06:06:33.500Z,2.60
2023-05-11T06:09:39.268Z,2.30
2023-05-11T06:12:44.369Z,2.45
2023-05-11T06:15:46.847Z,2.65
2023-05-11T06:19:09.441Z,2.30
2023-05-11T06:22:12.103Z,2.70
2023-05-11T06:25:16.914Z,2.53
2023-05-11T06:28:24.450Z,2.65
2023-05-11T06:31:29.745Z,2.72
2023-05-11T06:34:36.686Z,2.63
2023-05-11T06:37:39.392Z,2.45
2023-05-11T06:40:41.730Z,2.50
2023-05-11T06:43:44.034Z,2.47
2023-05-11T06:47:09.829Z,3.33
2023-05-11T06:50:17.894Z,2.30
2023-05-11T06:53:21.397Z,2.67
2023-05-11T06:56:29.125Z,2.33
2023-05-11T06:59:32.530Z,2.75
2023-05-11T07:02:41.693Z,2.58
2023-05-11T07:05:43.997Z,2.42
2023-05-11T07:08:46.204Z,2.63
2023-05-11T07:11:48.729Z,2.28
2023-05-11T07:14:53.380Z,2.80
2023-05-11T07:17:55.734Z,2.90
2023-05-11T07:20:58.099Z,2.42
2023-05-11T07:24:03.260Z,2.00
2023-05-11T07:30:08.253Z,2.40
2023-05-11T07:33:13.026Z,2.17
2023-05-11T07:36:18.448Z,2.20
2023-05-11T07:39:20.724Z,2.30
2023-05-11T07:42:23.112Z,2.22
2023-05-11T07:45:25.520Z,2.40
2023-05-11T07:48:29.005Z,2.20
2023-05-11T07:51:36.079Z,2.13
2023-05-11T07:54:40.601Z,2.20
2023-05-11T07:57:42.809Z,2.00
2023-05-11T08:00:45.155Z,2.15
2023-05-11T08:03:47.717Z,2.17
2023-05-11T08:06:50.015Z,2.03
2023-05-11T08:09:54.618Z,2.38
2023-05-11T08:13:01.627Z,2.72
2023-05-11T08:16:04.698Z,2.17
2023-05-11T08:19:07.613Z,2.70
2023-05-11T08:22:12.676Z,2.33
2023-05-11T08:25:17.611Z,2.25
2023-05-11T08:31:22.937Z,2.20
2023-05-11T08:34:25.499Z,2.05
2023-05-11T08:37:27.861Z,2.47
2023-05-11T08:40:31.129Z,2.35
2023-05-11T08:43:35.514Z,2.17
2023-05-11T08:46:41.970Z,2.42
2023-05-11T08:49:46.622Z,2.00
2023-05-11T08:52:51.988Z,2.38
2023-05-11T08:55:57.923Z,2.17
2023-05-11T08:59:07.258Z,2.65
2023-05-11T09:02:14.416Z,2.33
2023-05-11T09:05:19.957Z,2.53
2023-05-11T09:08:28.812Z,2.30
2023-05-11T09:11:33.839Z,2.10
2023-05-11T09:14:36.631Z,1.98
2023-05-11T09:17:41.776Z,2.55
2023-05-11T09:20:44.602Z,2.60
2023-05-11T09:23:59.128Z,1.80
2023-05-11T09:27:11.547Z,1.73
2023-05-11T09:30:23.953Z,1.90
2023-05-11T09:33:28.705Z,2.35
2023-05-11T09:36:33.761Z,1.92
2023-05-11T09:39:44.561Z,1.90
2023-05-11T09:43:02.582Z,1.70
2023-05-11T09:46:08.011Z,1.90
2023-05-11T09:49:15.122Z,1.88
2023-05-11T09:52:23.236Z,1.88
2023-05-11T09:55:25.956Z,2.00
2023-05-11T09:58:52.075Z,1.88
2023-05-11T10:01:57.410Z,1.88
2023-05-11T10:05:10.742Z,1.67
2023-05-11T10:08:13.053Z,1.80
2023-05-11T10:11:21.525Z,1.88
2023-05-11T10:14:24.921Z,2.00
2023-05-11T10:17:30.980Z,1.70
2023-05-11T10:20:35.866Z,1.60
2023-05-11T10:23:39.737Z,1.83
2023-05-11T10:26:42.662Z,1.67
2023-05-11T10:29:47.931Z,1.92
2023-05-11T10:32:58.205Z,1.90
2023-05-11T10:36:00.915Z,1.83
2023-05-11T10:42:38.228Z,1.48
2023-05-11T10:45:55.036Z,1.80
2023-05-11T10:49:22.436Z,1.70
2023-05-11T10:52:30.727Z,2.03
2023-05-11T10:55:46.764Z,1.85
2023-05-11T10:59:21.955Z,1.90
2023-05-11T11:02:36.034Z,1.60
2023-05-11T11:05:38.955Z,2.10
2023-05-11T11:09:04.469Z,1.75
2023-05-11T11:12:09.844Z,1.80
2023-05-11T11:15:17.709Z,2.10
2023-05-11T11:18:23.375Z,1.58
2023-05-11T11:21:42.026Z,1.33
2023-05-11T11:24:47.479Z,1.50
2023-05-11T11:27:49.692Z,1.50
2023-05-11T11:31:23.467Z,1.92
2023-05-11T11:34:28.725Z,1.77
2023-05-11T11:40:53.284Z,1.60
2023-05-11T11:43:57.943Z,1.88
2023-05-11T11:47:23.257Z,1.50
2023-05-11T11:50:28.293Z,1.80
2023-05-11T11:53:38.104Z,1.73
2023-05-11T11:56:47.361Z,1.70
2023-05-11T11:59:52.830Z,1.90
2023-05-11T12:02:56.494Z,2.08
2023-05-11T12:06:01.824Z,1.63
2023-05-11T12:12:09.201Z,1.67
2023-05-11T12:15:26.800Z,1.63
2023-05-11T12:18:29.315Z,1.80
2023-05-11T12:21:35.289Z,1.67
2023-05-11T12:24:39.341Z,1.75
2023-05-11T12:28:01.858Z,1.83
2023-05-11T12:31:06.600Z,1.77
2023-05-11T12:34:18.714Z,1.52
2023-05-11T12:37:23.173Z,1.80
2023-05-11T12:40:25.448Z,1.60
2023-05-11T12:43:29.898Z,1.70
2023-05-11T12:46:33.538Z,1.63
2023-05-11T12:49:38.127Z,1.75
2023-05-11T12:52:45.873Z,1.63
2023-05-11T12:56:03.217Z,1.73
2023-05-11T12:59:30.779Z,1.60
2023-05-11T13:02:35.916Z,1.80
2023-05-11T13:05:43.194Z,1.83
2023-05-11T13:08:48.388Z,2.15
2023-05-11T13:15:13.110Z,1.90
2023-05-11T13:18:18.026Z,1.73
2023-05-11T13:21:22.505Z,1.90
2023-05-11T13:24:27.563Z,1.77
2023-05-11T13:27:29.817Z,2.00
2023-05-11T13:30:34.669Z,1.92
2023-05-11T13:33:42.693Z,2.00
2023-05-11T13:36:52.025Z,2.00
2023-05-11T13:39:54.311Z,1.77
2023-05-11T13:42:56.853Z,1.85
2023-05-11T13:46:04.072Z,1.70
2023-05-11T13:49:11.322Z,1.90
2023-05-11T13:52:13.729Z,1.70
2023-05-11T13:55:22.101Z,1.50
2023-05-11T13:58:26.802Z,1.70
2023-05-11T14:01:31.270Z,1.90
2023-05-11T14:04:39.286Z,1.83
2023-05-11T14:07:47.906Z,1.52
2023-05-11T14:10:56.109Z,1.70
2023-05-11T14:13:58.433Z,1.70
2023-05-11T14:17:00.836Z,1.73
2023-05-11T14:20:06.450Z,1.92
2023-05-11T14:23:11.221Z,1.73
2023-05-11T14:26:15.742Z,2.15
2023-05-11T14:29:17.987Z,1.85
2023-05-11T14:32:23.504Z,1.63
2023-05-11T14:35:26.031Z,1.65
2023-05-11T14:38:32.417Z,1.80
2023-05-11T14:41:34.717Z,1.70
2023-05-11T14:44:37.168Z,2.03
2023-05-11T14:47:42.607Z,1.83
2023-05-11T14:50:47.443Z,1.60
2023-05-11T14:53:51.964Z,1.52
2023-05-11T14:56:56.225Z,1.70
2023-05-11T15:00:01.740Z,1.88
2023-05-11T15:03:12.196Z,1.88
2023-05-11T15:06:22.324Z,1.85
2023-05-11T15:09:24.683Z,1.70
2023-05-11T15:12:29.188Z,1.67
2023-05-11T15:15:31.560Z,1.55
2023-05-11T15:18:33.884Z,1.60
2023-05-11T15:21:41.004Z,1.70
2023-05-11T15:24:45.640Z,1.50
2023-05-11T15:27:53.226Z,1.80
2023-05-11T15:30:55.487Z,4.65
2023-05-11T15:34:03.068Z,2.83
2023-05-11T15:37:08.590Z,2.33
2023-05-11T15:40:12.782Z,1.75
2023-05-11T15:43:19.834Z,2.00
2023-05-11T15:46:24.481Z,1.92
2023-05-11T15:49:26.877Z,1.70
2023-05-11T15:52:29.152Z,1.83
2023-05-11T15:55:34.515Z,1.70
2023-05-11T15:58:36.776Z,1.67
2023-05-11T16:01:44.137Z,1.92
2023-05-11T16:04:46.434Z,1.90
2023-05-11T16:07:48.728Z,1.75
2023-05-11T16:10:51.785Z,1.73
2023-05-11T16:13:54.040Z,1.52
2023-05-11T16:16:56.427Z,1.70
2023-05-11T16:20:00.461Z,3.25
2023-05-11T16:23:05.291Z,2.10
2023-05-11T16:26:07.787Z,2.05
2023-05-11T16:29:10.151Z,2.13
2023-05-11T16:32:15.169Z,1.95
2023-05-11T16:35:19.766Z,1.77
2023-05-11T16:38:22.614Z,2.22
2023-05-11T16:41:28.097Z,1.90
2023-05-11T16:44:35.015Z,2.13
2023-05-11T16:47:37.320Z,1.90
2023-05-11T16:50:39.664Z,1.90
2023-05-11T16:53:46.320Z,2.10
2023-05-11T16:56:48.528Z,1.90
2023-05-11T16:59:53.037Z,2.25
2023-05-11T17:02:55.598Z,2.63
2023-05-11T17:05:58.417Z,2.20
2023-05-11T17:09:00.665Z,2.15
2023-05-11T17:12:13.194Z,2.20
2023-05-11T17:15:20.210Z,2.00
2023-05-11T17:18:24.835Z,2.33
2023-05-11T17:21:29.441Z,2.20
2023-05-11T17:24:34.177Z,2.25
2023-05-11T17:27:40.333Z,3.10
2023-05-11T17:30:48.480Z,2.30
2023-05-11T17:33:58.578Z,2.20
2023-05-11T17:37:01.040Z,2.22
2023-05-11T17:40:05.975Z,1.90
2023-05-11T17:43:08.213Z,1.83
2023-05-11T17:46:10.667Z,2.03
2023-05-11T17:49:15.598Z,1.98
2023-05-11T17:52:25.937Z,2.20
2023-05-11T17:55:28.221Z,2.10
2023-05-11T17:58:30.619Z,1.98
2023-05-11T18:01:33.910Z,1.70
2023-05-11T18:04:42.034Z,1.80
2023-05-11T18:07:46.504Z,1.85
2023-05-11T18:10:51.155Z,1.90
2023-05-11T18:13:56.206Z,2.00
2023-05-11T18:17:05.584Z,1.95
2023-05-11T18:20:08.793Z,1.88
2023-05-11T18:23:11.679Z,1.70
2023-05-11T18:26:14.184Z,2.28
2023-05-11T18:29:20.093Z,1.77
2023-05-11T18:32:22.462Z,1.90
2023-05-11T18:35:27.282Z,1.83
2023-05-11T18:38:29.703Z,1.80
2023-05-11T18:41:31.980Z,1.75
2023-05-11T18:44:39.798Z,1.95
2023-05-11T18:50:59.579Z,1.80
2023-05-11T18:54:06.912Z,1.90
2023-05-11T18:57:11.318Z,1.75
2023-05-11T19:00:16.256Z,1.83
2023-05-11T19:03:20.520Z,2.22
2023-05-11T19:06:25.169Z,1.60
2023-05-11T19:09:28.108Z,2.13
2023-05-11T19:12:31.625Z,2.33
2023-05-11T19:15:36.280Z,1.70
2023-05-11T19:18:40.036Z,2.00
2023-05-11T19:21:45.483Z,2.50
2023-05-11T19:24:52.742Z,2.10
2023-05-11T19:27:58.043Z,2.53
2023-05-11T19:31:05.721Z,2.13
2023-05-11T19:34:10.756Z,1.60
2023-05-11T19:37:13.086Z,1.77
2023-05-11T19:43:23.701Z,1.83
2023-05-11T19:46:28.224Z,2.20
2023-05-11T19:49:31.616Z,1.98
2023-05-11T19:52:36.626Z,2.17
2023-05-11T19:55:40.897Z,2.00
2023-05-11T19:58:45.400Z,2.75
2023-05-11T20:01:52.722Z,2.42
2023-05-11T20:04:57.347Z,2.28
2023-05-11T20:08:02.532Z,2.20
2023-05-11T20:11:05.218Z,2.53
2023-05-11T20:14:09.991Z,2.60
2023-05-11T20:17:12.464Z,2.70
2023-05-11T20:20:14.951Z,2.33
2023-05-11T20:23:18.089Z,1.95
2023-05-11T20:26:22.865Z,2.42
2023-05-11T20:29:27.405Z,2.30
2023-05-11T20:32:32.172Z,2.30
2023-05-11T20:35:34.528Z,1.95
2023-05-11T20:38:39.036Z,2.13
2023-05-11T20:41:41.537Z,2.00
2023-05-11T20:44:43.807Z,2.40
2023-05-11T20:47:50.982Z,2.28
2023-05-11T20:50:53.329Z,2.10
2023-05-11T20:53:55.661Z,1.90
2023-05-11T20:57:01.448Z,2.15
2023-05-11T21:00:09.259Z,2.10
2023-05-11T21:03:14.114Z,2.22
2023-05-11T21:06:16.896Z,2.80
2023-05-11T21:09:21.601Z,2.17
2023-05-11T21:12:24.090Z,2.58
2023-05-11T21:15:26.376Z,2.25
2023-05-11T21:21:41.079Z,2.80
2023-05-11T21:24:45.646Z,2.50
2023-05-11T21:27:50.250Z,2.30
2023-05-11T21:30:55.745Z,2.30
2023-05-11T21:37:03.555Z,2.35
2023-05-11T21:40:07.338Z,3.20
2023-05-11T21:43:14.880Z,2.30
2023-05-11T21:46:17.191Z,2.50
2023-05-11T21:49:21.877Z,2.20
2023-05-11T21:52:26.619Z,2.13
2023-05-11T21:55:31.265Z,2.42
2023-05-11T21:58:40.766Z,2.17
2023-05-11T22:01:43.236Z,2.35
2023-05-11T22:04:46.447Z,2.25
2023-05-11T22:07:48.672Z,2.10
2023-05-11T22:10:50.996Z,2.40
2023-05-11T22:13:55.470Z,2.13
2023-05-11T22:16:58.328Z,2.63
2023-05-11T22:20:06.471Z,2.42
2023-05-11T22:23:08.688Z,2.92
2023-05-11T22:26:10.892Z,2.25
2023-05-11T22:29:15.797Z,2.83
2023-05-11T22:32:18.174Z,2.22
2023-05-11T22:35:23.032Z,2.63
2023-05-11T22:38:25.336Z,2.40
2023-05-11T22:41:30.069Z,2.40
2023-05-11T22:44:32.354Z,2.58
2023-05-11T22:47:36.723Z,2.60
2023-05-11T22:50:47.416Z,3.20
2023-05-11T22:53:52.657Z,3.25
2023-05-11T22:56:57.424Z,2.55
2023-05-11T22:59:59.687Z,3.10
2023-05-11T23:03:04.539Z,2.60
2023-05-11T23:06:07.066Z,2.65
2023-05-11T23:09:10.330Z,2.63
2023-05-11T23:12:13.484Z,2.88
2023-05-11T23:15:18.502Z,2.47
2023-05-11T23:18:23.852Z,2.50
2023-05-11T23:21:30.819Z,2.50
2023-05-11T23:24:33.125Z,2.67
2023-05-11T23:27:37.851Z,2.38
2023-05-11T23:30:42.363Z,2.60
2023-05-11T23:33:47.194Z,3.00
2023-05-11T23:36:51.805Z,2.75
2023-05-11T23:39:58.674Z,2.63
2023-05-11T23:43:01.499Z,3.15
2023-05-11T23:46:03.737Z,2.80
2023-05-11T23:49:08.486Z,3.10
2023-05-11T23:52:10.936Z,2.83
2023-05-11T23:55:15.795Z,2.90
2023-05-11T23:58:23.346Z,3.33
